createdAt,value
2023-05-21T00:00:54.256Z,11.90
2023-05-21T00:01:54.238Z,11.91
2023-05-21T00:02:54.288Z,11.90
2023-05-21T00:03:54.320Z,11.90
2023-05-21T00:04:54.201Z,11.87
2023-05-21T00:05:54.371Z,11.81
2023-05-21T00:06:54.184Z,11.78
2023-05-21T00:07:54.159Z,11.75
2023-05-21T00:08:54.155Z,11.72
2023-05-21T00:09:54.160Z,11.72
2023-05-21T00:10:54.149Z,11.69
2023-05-21T00:11:54.115Z,11.63
2023-05-21T00:12:54.104Z,11.60
2023-05-21T00:13:54.089Z,11.57
2023-05-21T00:14:54.123Z,11.55
2023-05-21T00:15:54.099Z,11.57
2023-05-21T00:16:54.101Z,11.57
2023-05-21T00:17:54.092Z,11.59
2023-05-21T00:18:54.066Z,11.54
2023-05-21T00:19:54.040Z,11.47
2023-05-21T00:20:54.026Z,11.48
2023-05-21T00:21:54.019Z,11.48
2023-05-21T00:22:54.001Z,11.52
2023-05-21T00:23:54.021Z,11.57
2023-05-21T00:24:53.997Z,11.54
2023-05-21T00:25:53.989Z,11.55
2023-05-21T00:26:53.961Z,11.52
2023-05-21T00:27:53.944Z,11.55
2023-05-21T00:28:53.963Z,11.54
2023-05-21T00:29:53.998Z,11.51
2023-05-21T00:30:53.918Z,11.52
2023-05-21T00:31:53.931Z,11.55
2023-05-21T00:32:53.892Z,11.52
2023-05-21T00:33:53.896Z,11.51
2023-05-21T00:34:53.867Z,11.51
2023-05-21T00:35:53.860Z,11.50
2023-05-21T00:36:53.866Z,11.51
2023-05-21T00:37:53.866Z,11.50
2023-05-21T00:38:53.858Z,11.47
2023-05-21T00:39:53.959Z,11.44
2023-05-21T00:40:53.811Z,11.45
2023-05-21T00:41:53.786Z,11.44
2023-05-21T00:42:53.799Z,11.43
2023-05-21T00:43:53.773Z,11.43
2023-05-21T00:44:53.757Z,11.41
2023-05-21T00:45:53.825Z,11.40
2023-05-21T00:46:53.798Z,11.40
2023-05-21T00:47:53.761Z,11.37
2023-05-21T00:48:53.711Z,11.37
2023-05-21T00:49:53.722Z,11.36
2023-05-21T00:50:53.690Z,11.35
2023-05-21T00:51:53.705Z,11.33
2023-05-21T00:52:53.688Z,11.37
2023-05-21T00:53:53.674Z,11.43
2023-05-21T00:54:53.647Z,11.41
2023-05-21T00:55:53.648Z,11.43
2023-05-21T00:56:53.651Z,11.45
2023-05-21T00:57:53.633Z,11.47
2023-05-21T00:58:53.610Z,11.48
2023-05-21T00:59:53.604Z,11.48
2023-05-21T01:00:53.608Z,11.52
2023-05-21T01:01:53.601Z,11.52
2023-05-21T01:02:53.634Z,11.54
2023-05-21T01:03:53.569Z,11.51
2023-05-21T01:04:53.541Z,11.50
2023-05-21T01:05:53.555Z,11.48
2023-05-21T01:06:53.533Z,11.48
2023-05-21T01:07:53.521Z,11.48
2023-05-21T01:08:53.494Z,11.50
2023-05-21T01:09:53.501Z,11.50
2023-05-21T01:10:53.492Z,11.45
2023-05-21T01:11:53.493Z,11.45
2023-05-21T01:12:53.455Z,11.47
2023-05-21T01:13:53.446Z,11.45
2023-05-21T01:14:53.453Z,11.45
2023-05-21T01:15:53.445Z,11.45
2023-05-21T01:16:53.566Z,11.41
2023-05-21T01:17:53.494Z,11.41
2023-05-21T01:18:53.447Z,11.44
2023-05-21T01:19:53.495Z,11.44
2023-05-21T01:20:53.390Z,11.45
2023-05-21T01:21:53.371Z,11.44
2023-05-21T01:22:53.350Z,11.41
2023-05-21T01:23:53.346Z,11.43
2023-05-21T01:24:53.342Z,11.40
2023-05-21T01:25:53.317Z,11.37
2023-05-21T01:26:53.316Z,11.35
2023-05-21T01:27:53.310Z,11.40
2023-05-21T01:28:53.308Z,11.40
2023-05-21T01:29:53.540Z,11.40
2023-05-21T01:30:53.267Z,11.37
2023-05-21T01:31:53.261Z,11.40
2023-05-21T01:32:53.341Z,11.40
2023-05-21T01:33:53.281Z,11.36
2023-05-21T01:34:53.269Z,11.37
2023-05-21T01:35:53.230Z,11.40
2023-05-21T01:36:53.205Z,11.37
2023-05-21T01:37:53.208Z,11.37
2023-05-21T01:38:53.191Z,11.33
2023-05-21T01:39:53.188Z,11.32
2023-05-21T01:40:53.161Z,11.30
2023-05-21T01:41:53.155Z,11.30
2023-05-21T01:42:53.149Z,11.35
2023-05-21T01:43:53.158Z,11.35
2023-05-21T01:44:53.125Z,11.35
2023-05-21T01:45:53.165Z,11.32
2023-05-21T01:46:53.179Z,11.27
2023-05-21T01:47:53.167Z,11.27
2023-05-21T01:48:53.110Z,11.27
2023-05-21T01:49:53.080Z,11.25
2023-05-21T01:50:53.067Z,11.30
2023-05-21T01:51:53.047Z,11.27
2023-05-21T01:52:53.048Z,11.30
2023-05-21T01:53:53.028Z,11.29
2023-05-21T01:54:53.009Z,11.32
2023-05-21T01:55:53.002Z,11.33
2023-05-21T01:56:52.983Z,11.36
2023-05-21T01:57:53.004Z,11.33
2023-05-21T01:58:52.969Z,11.33
2023-05-21T01:59:52.964Z,11.29
2023-05-21T02:00:52.946Z,11.27
2023-05-21T02:01:53.030Z,11.26
2023-05-21T02:02:52.965Z,11.26
2023-05-21T02:03:52.987Z,11.29
2023-05-21T02:04:52.898Z,11.27
2023-05-21T02:05:52.904Z,11.27
2023-05-21T02:06:52.910Z,11.27
2023-05-21T02:07:52.876Z,11.27
2023-05-21T02:08:52.886Z,11.32
2023-05-21T02:09:52.877Z,11.27
2023-05-21T02:10:52.841Z,11.30
2023-05-21T02:11:52.853Z,11.27
2023-05-21T02:12:52.849Z,11.30
2023-05-21T02:13:52.814Z,11.25
2023-05-21T02:14:52.798Z,11.23
2023-05-21T02:15:52.825Z,11.23
2023-05-21T02:16:52.794Z,11.19
2023-05-21T02:17:52.779Z,11.19
2023-05-21T02:18:52.807Z,11.23
2023-05-21T02:19:52.751Z,11.25
2023-05-21T02:20:52.754Z,11.23
2023-05-21T02:21:52.724Z,11.26
2023-05-21T02:22:52.712Z,11.26
2023-05-21T02:23:52.726Z,11.29
2023-05-21T02:24:52.696Z,11.32
2023-05-21T02:25:52.709Z,11.29
2023-05-21T02:26:52.667Z,11.25
2023-05-21T02:27:52.664Z,11.33
2023-05-21T02:28:52.654Z,11.36
2023-05-21T02:29:52.668Z,11.43
2023-05-21T02:30:52.670Z,11.45
2023-05-21T02:31:52.642Z,11.47
2023-05-21T02:32:52.643Z,11.52
2023-05-21T02:33:52.609Z,11.52
2023-05-21T02:34:52.613Z,11.52
2023-05-21T02:35:52.587Z,11.51
2023-05-21T02:36:52.570Z,11.52
2023-05-21T02:37:52.564Z,11.54
2023-05-21T02:38:52.542Z,11.54
2023-05-21T02:39:52.565Z,11.54
2023-05-21T02:40:52.517Z,11.54
2023-05-21T02:41:52.513Z,11.51
2023-05-21T02:42:52.506Z,11.50
2023-05-21T02:43:52.509Z,11.48
2023-05-21T02:44:52.520Z,11.45
2023-05-21T02:45:52.522Z,11.40
2023-05-21T02:46:52.407Z,11.36
2023-05-21T02:47:52.492Z,11.35
2023-05-21T02:48:52.457Z,11.26
2023-05-21T02:49:52.428Z,11.25
2023-05-21T02:50:52.431Z,11.22
2023-05-21T02:51:52.408Z,11.17
2023-05-21T02:52:52.384Z,11.12
2023-05-21T02:53:52.358Z,11.14
2023-05-21T02:54:52.308Z,11.15
2023-05-21T02:55:52.378Z,11.22
2023-05-21T02:56:52.344Z,11.17
2023-05-21T02:57:52.399Z,11.19
2023-05-21T02:58:52.366Z,11.18
2023-05-21T02:59:52.326Z,11.15
2023-05-21T03:00:52.258Z,11.22
2023-05-21T03:01:52.339Z,11.22
2023-05-21T03:02:52.372Z,11.25
2023-05-21T03:03:52.230Z,11.25
2023-05-21T03:04:52.207Z,11.26
2023-05-21T03:05:52.200Z,11.27
2023-05-21T03:06:52.186Z,11.26
2023-05-21T03:07:52.204Z,11.29
2023-05-21T03:08:52.172Z,11.30
2023-05-21T03:09:52.160Z,11.32
2023-05-21T03:10:52.141Z,11.35
2023-05-21T03:11:52.155Z,11.32
2023-05-21T03:12:52.144Z,11.33
2023-05-21T03:13:52.111Z,11.29
2023-05-21T03:14:52.093Z,11.27
2023-05-21T03:15:52.093Z,11.27
2023-05-21T03:16:52.111Z,11.26
2023-05-21T03:17:52.083Z,11.29
2023-05-21T03:18:52.077Z,11.27
2023-05-21T03:19:52.053Z,11.23
2023-05-21T03:20:52.041Z,11.22
2023-05-21T03:21:52.047Z,11.23
2023-05-21T03:22:52.018Z,11.19
2023-05-21T03:23:52.014Z,11.22
2023-05-21T03:24:51.990Z,11.22
2023-05-21T03:25:52.114Z,11.23
2023-05-21T03:26:52.237Z,11.22
2023-05-21T03:27:51.962Z,11.26
2023-05-21T03:28:51.971Z,11.26
2023-05-21T03:29:51.973Z,11.27
2023-05-21T03:30:51.957Z,11.29
2023-05-21T03:31:51.960Z,11.30
2023-05-21T03:32:51.918Z,11.32
2023-05-21T03:33:51.909Z,11.35
2023-05-21T03:34:51.908Z,11.32
2023-05-21T03:35:51.910Z,11.35
2023-05-21T03:36:51.874Z,11.32
2023-05-21T03:37:51.863Z,11.30
2023-05-21T03:38:51.844Z,11.29
2023-05-21T03:39:51.867Z,11.29
2023-05-21T03:40:51.855Z,11.25
2023-05-21T03:41:51.824Z,11.32
2023-05-21T03:42:51.803Z,11.30
2023-05-21T03:43:51.799Z,11.33
2023-05-21T03:44:51.813Z,11.33
2023-05-21T03:45:51.807Z,11.33
2023-05-21T03:46:51.770Z,11.32
2023-05-21T03:47:51.761Z,11.32
2023-05-21T03:48:51.752Z,11.33
2023-05-21T03:49:51.757Z,11.32
2023-05-21T03:50:51.721Z,11.32
2023-05-21T03:51:51.731Z,11.33
2023-05-21T03:52:51.700Z,11.37
2023-05-21T03:53:51.708Z,11.36
2023-05-21T03:54:51.720Z,11.36
2023-05-21T03:55:51.675Z,11.35
2023-05-21T03:56:51.726Z,11.40
2023-05-21T03:57:51.653Z,11.40
2023-05-21T03:58:51.655Z,11.44
2023-05-21T03:59:51.629Z,11.45
2023-05-21T04:00:51.611Z,11.47
2023-05-21T04:01:51.632Z,11.51
2023-05-21T04:02:51.630Z,11.54
2023-05-21T04:03:51.714Z,11.55
2023-05-21T04:04:51.819Z,11.60
2023-05-21T04:05:51.593Z,11.65
2023-05-21T04:06:51.550Z,11.69
2023-05-21T04:07:51.558Z,11.73
2023-05-21T04:08:51.547Z,11.80
2023-05-21T04:09:51.529Z,11.83
2023-05-21T04:10:51.501Z,11.84
2023-05-21T04:11:51.500Z,11.86
2023-05-21T04:12:51.513Z,11.91
2023-05-21T04:13:51.479Z,11.97
2023-05-21T04:14:51.461Z,12.00
2023-05-21T04:15:51.474Z,12.04
2023-05-21T04:16:51.478Z,12.09
2023-05-21T04:17:51.503Z,12.13
2023-05-21T04:18:51.480Z,12.21
2023-05-21T04:19:51.411Z,12.24
2023-05-21T04:20:51.406Z,12.28
2023-05-21T04:21:51.421Z,12.35
2023-05-21T04:22:51.381Z,12.39
2023-05-21T04:23:51.370Z,12.39
2023-05-21T04:24:51.357Z,12.45
2023-05-21T04:25:51.385Z,12.50
2023-05-21T04:26:51.369Z,12.50
2023-05-21T04:27:51.334Z,12.58
2023-05-21T04:28:51.314Z,12.61
2023-05-21T04:29:51.321Z,12.62
2023-05-21T04:30:51.374Z,12.65
2023-05-21T04:31:51.509Z,12.70
2023-05-21T04:32:51.358Z,12.73
2023-05-21T04:33:51.265Z,12.73
2023-05-21T04:34:51.251Z,12.78
2023-05-21T04:35:51.279Z,12.79
2023-05-21T04:36:51.229Z,12.85
2023-05-21T04:37:51.223Z,12.87
2023-05-21T04:38:51.207Z,12.90
2023-05-21T04:39:51.213Z,12.94
2023-05-21T04:40:51.202Z,13.00
2023-05-21T04:41:51.185Z,13.00
2023-05-21T04:42:51.171Z,13.01
2023-05-21T04:43:51.157Z,13.05
2023-05-21T04:44:51.172Z,13.11
2023-05-21T04:45:51.164Z,13.11
2023-05-21T04:46:51.147Z,13.15
2023-05-21T04:47:51.166Z,13.15
2023-05-21T04:48:51.112Z,13.19
2023-05-21T04:49:51.123Z,13.22
2023-05-21T04:50:51.090Z,13.25
2023-05-21T04:51:51.092Z,13.28
2023-05-21T04:52:51.064Z,13.30
2023-05-21T04:53:51.063Z,13.31
2023-05-21T04:54:51.090Z,13.31
2023-05-21T04:55:51.064Z,13.35
2023-05-21T04:56:51.017Z,13.35
2023-05-21T04:57:51.026Z,13.35
2023-05-21T04:58:51.039Z,13.35
2023-05-21T04:59:51.031Z,13.35
2023-05-21T05:00:51.274Z,13.38
2023-05-21T05:01:50.970Z,13.37
2023-05-21T05:02:51.047Z,13.42
2023-05-21T05:03:50.980Z,13.42
2023-05-21T05:04:50.947Z,13.41
2023-05-21T05:05:50.930Z,13.46
2023-05-21T05:06:50.928Z,13.46
2023-05-21T05:07:50.908Z,13.50
2023-05-21T05:08:50.926Z,13.50
2023-05-21T05:09:50.888Z,13.52
2023-05-21T05:10:50.905Z,13.53
2023-05-21T05:11:50.864Z,13.59
2023-05-21T05:12:50.891Z,13.56
2023-05-21T05:13:50.895Z,13.60
2023-05-21T05:14:50.861Z,13.62
2023-05-21T05:15:52.025Z,13.65
2023-05-21T05:16:50.980Z,13.68
2023-05-21T05:17:50.855Z,13.72
2023-05-21T05:18:50.845Z,13.74
2023-05-21T05:19:50.793Z,13.75
2023-05-21T05:20:50.798Z,13.78
2023-05-21T05:21:50.772Z,13.81
2023-05-21T05:22:50.770Z,13.85
2023-05-21T05:23:50.739Z,13.87
2023-05-21T05:24:50.740Z,13.90
2023-05-21T05:25:50.722Z,13.93
2023-05-21T05:26:50.745Z,13.96
2023-05-21T05:27:51.000Z,13.99
2023-05-21T05:28:50.689Z,14.00
2023-05-21T05:29:50.669Z,14.05
2023-05-21T05:30:50.703Z,14.10
2023-05-21T05:31:50.714Z,14.12
2023-05-21T05:32:50.663Z,14.15
2023-05-21T05:33:50.633Z,14.23
2023-05-21T05:34:50.636Z,14.30
2023-05-21T05:35:50.616Z,14.40
2023-05-21T05:36:50.624Z,14.44
2023-05-21T05:37:50.582Z,14.47
2023-05-21T05:38:50.586Z,14.51
2023-05-21T05:39:50.559Z,14.54
2023-05-21T05:40:50.587Z,14.58
2023-05-21T05:41:50.564Z,14.54
2023-05-21T05:42:50.536Z,14.54
2023-05-21T05:43:50.533Z,14.58
2023-05-21T05:44:50.516Z,14.63
2023-05-21T05:45:50.528Z,14.62
2023-05-21T05:46:50.493Z,14.65
2023-05-21T05:47:50.549Z,14.68
2023-05-21T05:48:50.486Z,14.68
2023-05-21T05:49:50.450Z,14.73
2023-05-21T05:50:50.587Z,14.78
2023-05-21T05:51:50.438Z,14.85
2023-05-21T05:52:50.439Z,14.89
2023-05-21T05:53:50.404Z,14.94
2023-05-21T05:54:50.426Z,14.97
2023-05-21T05:55:50.412Z,14.99
2023-05-21T05:56:50.384Z,15.00
2023-05-21T05:57:50.384Z,15.03
2023-05-21T05:58:50.364Z,15.03
2023-05-21T05:59:50.356Z,15.09
2023-05-21T06:00:50.343Z,15.06
2023-05-21T06:01:50.326Z,15.09
2023-05-21T06:02:50.389Z,15.11
2023-05-21T06:03:50.363Z,15.11
2023-05-21T06:04:50.312Z,15.17
2023-05-21T06:05:50.288Z,15.11
2023-05-21T06:06:50.285Z,15.15
2023-05-21T06:07:50.261Z,15.18
2023-05-21T06:08:50.269Z,15.18
2023-05-21T06:09:50.274Z,15.19
2023-05-21T06:10:50.250Z,15.22
2023-05-21T06:11:50.217Z,15.24
2023-05-21T06:12:50.228Z,15.27
2023-05-21T06:13:50.251Z,15.25
2023-05-21T06:14:50.190Z,15.29
2023-05-21T06:15:50.189Z,15.33
2023-05-21T06:16:50.191Z,15.33
2023-05-21T06:17:50.217Z,15.36
2023-05-21T06:18:50.186Z,15.42
2023-05-21T06:19:50.136Z,15.46
2023-05-21T06:20:50.140Z,15.46
2023-05-21T06:21:50.100Z,15.47
2023-05-21T06:22:50.104Z,15.51
2023-05-21T06:23:50.104Z,15.51
2023-05-21T06:24:50.081Z,15.54
2023-05-21T06:25:50.058Z,15.52
2023-05-21T06:26:50.056Z,15.52
2023-05-21T06:27:50.061Z,15.51
2023-05-21T06:28:50.058Z,15.52
2023-05-21T06:29:50.021Z,15.55
2023-05-21T06:30:50.023Z,15.58
2023-05-21T06:31:50.005Z,15.62
2023-05-21T06:32:50.099Z,15.65
2023-05-21T06:33:50.096Z,15.68
2023-05-21T06:34:49.969Z,15.70
2023-05-21T06:35:49.961Z,15.77
2023-05-21T06:36:49.950Z,15.82
2023-05-21T06:37:49.953Z,15.83
2023-05-21T06:38:49.929Z,15.86
2023-05-21T06:39:49.917Z,15.90
2023-05-21T06:40:49.905Z,15.91
2023-05-21T06:41:49.942Z,15.91
2023-05-21T06:42:49.914Z,15.97
2023-05-21T06:43:49.906Z,15.98
2023-05-21T06:44:49.870Z,16.01
2023-05-21T06:45:49.866Z,16.10
2023-05-21T06:46:49.862Z,16.15
2023-05-21T06:47:49.840Z,16.17
2023-05-21T06:48:49.837Z,16.26
2023-05-21T06:49:49.814Z,16.31
2023-05-21T06:50:49.800Z,16.35
2023-05-21T06:51:49.808Z,16.38
2023-05-21T06:52:49.787Z,16.43
2023-05-21T06:53:49.761Z,16.49
2023-05-21T06:54:49.757Z,16.54
2023-05-21T06:55:49.763Z,16.58
2023-05-21T06:56:49.753Z,16.61
2023-05-21T06:57:49.731Z,16.68
2023-05-21T06:58:49.738Z,16.68
2023-05-21T06:59:49.705Z,16.71
2023-05-21T07:00:49.753Z,16.76
2023-05-21T07:01:49.673Z,16.78
2023-05-21T07:02:49.762Z,16.81
2023-05-21T07:03:49.752Z,16.81
2023-05-21T07:04:49.648Z,16.89
2023-05-21T07:05:49.648Z,16.91
2023-05-21T07:06:49.629Z,16.93
2023-05-21T07:07:49.610Z,16.93
2023-05-21T07:08:49.616Z,16.96
2023-05-21T07:09:49.609Z,16.97
2023-05-21T07:10:49.606Z,17.01
2023-05-21T07:11:49.571Z,17.08
2023-05-21T07:12:49.561Z,17.11
2023-05-21T07:13:49.541Z,17.14
2023-05-21T07:14:49.571Z,17.19
2023-05-21T07:15:49.527Z,17.20
2023-05-21T07:16:49.565Z,17.20
2023-05-21T07:17:49.554Z,17.20
2023-05-21T07:18:49.523Z,17.26
2023-05-21T07:19:49.501Z,17.34
2023-05-21T07:20:49.477Z,17.42
2023-05-21T07:21:49.477Z,17.48
2023-05-21T07:22:49.467Z,17.59
2023-05-21T07:23:49.451Z,17.71
2023-05-21T07:24:49.468Z,17.95
2023-05-21T07:25:49.421Z,18.10
2023-05-21T07:26:49.405Z,18.23
2023-05-21T07:27:49.386Z,18.34
2023-05-21T07:28:49.421Z,18.43
2023-05-21T07:29:49.371Z,18.58
2023-05-21T07:30:49.403Z,18.68
2023-05-21T07:31:49.346Z,18.81
2023-05-21T07:32:49.410Z,18.90
2023-05-21T07:33:49.346Z,18.86
2023-05-21T07:34:49.333Z,18.86
2023-05-21T07:35:49.321Z,18.84
2023-05-21T07:36:49.311Z,18.84
2023-05-21T07:37:49.335Z,18.81
2023-05-21T07:38:49.298Z,18.88
2023-05-21T07:39:49.269Z,18.86
2023-05-21T07:40:49.259Z,18.98
2023-05-21T07:41:49.248Z,19.29
2023-05-21T07:42:49.256Z,19.63
2023-05-21T07:43:49.232Z,20.00
2023-05-21T07:44:49.210Z,20.28
2023-05-21T07:45:49.203Z,20.60
2023-05-21T07:46:49.256Z,20.97
2023-05-21T07:47:49.225Z,21.21
2023-05-21T07:48:49.175Z,21.27
2023-05-21T07:49:49.174Z,21.24
2023-05-21T07:50:49.180Z,21.40
2023-05-21T07:51:49.139Z,21.50
2023-05-21T07:52:49.170Z,21.39
2023-05-21T07:53:49.113Z,21.24
2023-05-21T07:54:49.149Z,21.14
2023-05-21T07:55:49.106Z,21.05
2023-05-21T07:56:49.122Z,21.02
2023-05-21T07:57:49.085Z,21.05
2023-05-21T07:58:49.080Z,21.06
2023-05-21T07:59:49.060Z,21.12
2023-05-21T08:00:49.061Z,21.14
2023-05-21T08:01:49.058Z,21.18
2023-05-21T08:02:49.071Z,21.25
2023-05-21T08:03:49.183Z,21.25
2023-05-21T08:04:49.089Z,21.27
2023-05-21T08:05:49.038Z,21.30
2023-05-21T08:06:49.017Z,21.14
2023-05-21T08:07:48.972Z,21.17
2023-05-21T08:08:48.959Z,21.17
2023-05-21T08:09:48.949Z,21.17
2023-05-21T08:10:48.962Z,21.20
2023-05-21T08:11:48.951Z,21.18
2023-05-21T08:12:48.925Z,21.21
2023-05-21T08:13:48.901Z,21.17
2023-05-21T08:14:48.900Z,21.12
2023-05-21T08:15:51.261Z,21.12
2023-05-21T08:16:48.917Z,21.06
2023-05-21T08:17:48.913Z,21.00
2023-05-21T08:18:48.878Z,20.99
2023-05-21T08:19:48.865Z,20.75
2023-05-21T08:20:48.853Z,20.87
2023-05-21T08:21:50.309Z,20.93
2023-05-21T08:22:48.815Z,20.87
2023-05-21T08:23:48.792Z,20.87
2023-05-21T08:24:48.838Z,20.88
2023-05-21T08:25:48.782Z,20.96
2023-05-21T08:26:48.771Z,20.99
2023-05-21T08:27:50.924Z,21.02
2023-05-21T08:28:48.751Z,21.00
2023-05-21T08:29:48.758Z,21.07
2023-05-21T08:30:48.743Z,21.18
2023-05-21T08:31:48.747Z,21.39
2023-05-21T08:32:48.720Z,21.58
2023-05-21T08:33:48.710Z,21.69
2023-05-21T08:34:48.713Z,21.82
2023-05-21T08:35:48.670Z,21.98
2023-05-21T08:36:48.660Z,22.30
2023-05-21T08:37:48.652Z,22.75
2023-05-21T08:38:48.660Z,23.15
2023-05-21T08:39:48.646Z,23.58
2023-05-21T08:40:48.622Z,24.03
2023-05-21T08:41:48.604Z,24.51
2023-05-21T08:42:48.608Z,24.78
2023-05-21T08:43:50.407Z,24.95
2023-05-21T08:44:48.583Z,25.04
2023-05-21T08:45:48.609Z,25.16
2023-05-21T08:46:48.555Z,24.91
2023-05-21T08:47:48.568Z,24.58
2023-05-21T08:48:48.581Z,24.42
2023-05-21T08:49:48.517Z,23.66
2023-05-21T08:50:48.514Z,23.65
2023-05-21T08:51:48.507Z,23.58
2023-05-21T08:52:48.515Z,23.39
2023-05-21T08:53:48.505Z,23.31
2023-05-21T08:54:48.476Z,23.37
2023-05-21T08:55:49.657Z,23.41
2023-05-21T08:56:48.458Z,23.31
2023-05-21T08:57:48.488Z,23.34
2023-05-21T08:58:48.471Z,23.40
2023-05-21T08:59:48.420Z,23.39
2023-05-21T09:00:48.453Z,23.31
2023-05-21T09:01:48.424Z,23.24
2023-05-21T09:02:48.446Z,23.28
2023-05-21T09:03:48.424Z,23.28
2023-05-21T09:04:48.383Z,23.10
2023-05-21T09:05:48.369Z,23.13
2023-05-21T09:06:48.548Z,23.02
2023-05-21T09:07:49.771Z,22.87
2023-05-21T09:08:48.317Z,22.70
2023-05-21T09:09:48.315Z,22.65
2023-05-21T09:10:48.302Z,22.48
2023-05-21T09:11:48.339Z,22.39
2023-05-21T09:12:48.277Z,22.38
2023-05-21T09:13:48.265Z,22.43
2023-05-21T09:14:48.257Z,22.57
2023-05-21T09:15:48.243Z,22.63
2023-05-21T09:16:48.336Z,22.84
2023-05-21T09:17:48.279Z,22.81
2023-05-21T09:18:48.267Z,22.87
2023-05-21T09:19:48.201Z,22.94
2023-05-21T09:20:48.197Z,22.91
2023-05-21T09:21:48.203Z,22.87
2023-05-21T09:22:48.175Z,22.44
2023-05-21T09:23:48.175Z,22.39
2023-05-21T09:24:48.161Z,22.35
2023-05-21T09:25:48.413Z,22.29
2023-05-21T09:26:48.129Z,22.00
2023-05-21T09:27:48.117Z,22.06
2023-05-21T09:28:48.110Z,21.85
2023-05-21T09:29:48.103Z,21.89
2023-05-21T09:30:48.170Z,21.80
2023-05-21T09:31:48.238Z,21.88
2023-05-21T09:32:48.095Z,21.91
2023-05-21T09:33:48.070Z,21.88
2023-05-21T09:34:48.059Z,21.83
2023-05-21T09:35:48.054Z,21.83
2023-05-21T09:36:48.012Z,21.77
2023-05-21T09:37:48.016Z,21.72
2023-05-21T09:38:47.994Z,21.64
2023-05-21T09:39:48.034Z,21.73
2023-05-21T09:40:47.980Z,21.64
2023-05-21T09:41:47.964Z,21.70
2023-05-21T09:42:47.959Z,21.76
2023-05-21T09:43:47.971Z,21.79
2023-05-21T09:44:47.957Z,21.77
2023-05-21T09:45:47.929Z,21.85
2023-05-21T09:46:47.989Z,21.79
2023-05-21T09:47:47.927Z,21.80
2023-05-21T09:48:47.923Z,21.85
2023-05-21T09:49:47.915Z,21.82
2023-05-21T09:50:47.878Z,21.89
2023-05-21T09:51:47.864Z,21.92
2023-05-21T09:52:47.853Z,21.99
2023-05-21T09:53:47.866Z,22.10
2023-05-21T09:54:47.831Z,22.26
2023-05-21T09:55:47.836Z,22.35
2023-05-21T09:56:47.808Z,22.51
2023-05-21T09:57:49.809Z,22.63
2023-05-21T09:58:47.813Z,22.81
2023-05-21T09:59:47.769Z,22.98
2023-05-21T10:00:47.773Z,22.96
2023-05-21T10:01:47.779Z,23.00
2023-05-21T10:02:47.798Z,22.96
2023-05-21T10:03:49.310Z,22.96
2023-05-21T10:04:47.792Z,22.99
2023-05-21T10:05:47.717Z,23.12
2023-05-21T10:06:47.703Z,23.31
2023-05-21T10:07:47.723Z,23.61
2023-05-21T10:08:47.682Z,23.71
2023-05-21T10:09:47.679Z,23.73
2023-05-21T10:10:47.647Z,23.84
2023-05-21T10:11:47.657Z,24.10
2023-05-21T10:12:47.650Z,24.24
2023-05-21T10:13:47.641Z,24.20
2023-05-21T10:14:47.631Z,24.06
2023-05-21T10:15:49.427Z,24.38
2023-05-21T10:16:47.740Z,24.55
2023-05-21T10:17:47.628Z,24.45
2023-05-21T10:18:47.611Z,24.53
2023-05-21T10:19:47.565Z,24.60
2023-05-21T10:20:47.543Z,24.48
2023-05-21T10:21:47.578Z,24.39
2023-05-21T10:22:47.522Z,24.35
2023-05-21T10:23:47.553Z,24.43
2023-05-21T10:24:47.510Z,24.51
2023-05-21T10:25:47.489Z,24.81
2023-05-21T10:26:47.503Z,24.81
2023-05-21T10:27:47.484Z,24.98
2023-05-21T10:28:47.462Z,25.06
2023-05-21T10:29:47.479Z,24.43
2023-05-21T10:30:47.455Z,24.33
2023-05-21T10:31:47.486Z,23.96
2023-05-21T10:32:47.537Z,24.01
2023-05-21T10:33:47.417Z,23.92
2023-05-21T10:34:47.398Z,23.87
2023-05-21T10:35:47.410Z,23.93
2023-05-21T10:36:47.371Z,23.92
2023-05-21T10:37:47.386Z,23.91
2023-05-21T10:38:47.363Z,23.88
2023-05-21T10:39:47.368Z,24.03
2023-05-21T10:40:47.364Z,24.10
2023-05-21T10:41:47.339Z,24.17
2023-05-21T10:42:47.310Z,24.20
2023-05-21T10:43:47.311Z,24.33
2023-05-21T10:44:47.320Z,24.42
2023-05-21T10:45:47.309Z,24.50
2023-05-21T10:46:47.276Z,24.50
2023-05-21T10:47:47.310Z,24.53
2023-05-21T10:48:47.272Z,24.63
2023-05-21T10:49:47.271Z,24.77
2023-05-21T10:50:47.238Z,24.81
2023-05-21T10:51:47.227Z,24.95
2023-05-21T10:52:47.217Z,24.57
2023-05-21T10:53:47.239Z,24.85
2023-05-21T10:54:47.201Z,24.91
2023-05-21T10:55:47.188Z,25.07
2023-05-21T10:56:47.181Z,25.22
2023-05-21T10:57:47.180Z,25.28
2023-05-21T10:58:47.161Z,25.33
2023-05-21T10:59:47.140Z,25.53
2023-05-21T11:00:47.146Z,25.22
2023-05-21T11:01:47.181Z,25.38
2023-05-21T11:02:47.160Z,25.53
2023-05-21T11:03:47.136Z,25.60
2023-05-21T11:04:47.080Z,25.66
2023-05-21T11:05:47.079Z,25.78
2023-05-21T11:06:47.066Z,25.66
2023-05-21T11:07:47.081Z,25.53
2023-05-21T11:08:47.061Z,25.33
2023-05-21T11:09:47.029Z,25.26
2023-05-21T11:10:47.018Z,25.38
2023-05-21T11:11:47.018Z,25.53
2023-05-21T11:12:47.019Z,25.73
2023-05-21T11:13:46.999Z,25.62
2023-05-21T11:14:46.979Z,25.78
2023-05-21T11:15:46.980Z,25.65
2023-05-21T11:16:47.019Z,25.85
2023-05-21T11:17:46.984Z,25.96
2023-05-21T11:18:47.005Z,26.21
2023-05-21T11:19:46.952Z,26.60
2023-05-21T11:20:46.920Z,26.99
2023-05-21T11:21:46.923Z,27.08
2023-05-21T11:22:46.921Z,27.32
2023-05-21T11:23:46.888Z,27.51
2023-05-21T11:24:48.274Z,27.65
2023-05-21T11:25:46.901Z,27.55
2023-05-21T11:26:46.907Z,27.47
2023-05-21T11:27:46.851Z,27.75
2023-05-21T11:28:46.856Z,28.02
2023-05-21T11:29:46.825Z,28.14
2023-05-21T11:30:46.816Z,28.37
2023-05-21T11:31:46.895Z,28.32
2023-05-21T11:32:46.800Z,28.12
2023-05-21T11:33:46.786Z,28.32
2023-05-21T11:34:46.766Z,27.36
2023-05-21T11:35:46.776Z,26.89
2023-05-21T11:36:46.768Z,26.74
2023-05-21T11:37:46.757Z,26.74
2023-05-21T11:38:46.756Z,26.88
2023-05-21T11:39:46.722Z,26.93
2023-05-21T11:40:46.722Z,26.65
2023-05-21T11:41:46.701Z,26.65
2023-05-21T11:42:46.678Z,26.53
2023-05-21T11:43:46.672Z,26.25
2023-05-21T11:44:46.667Z,26.02
2023-05-21T11:45:46.685Z,25.88
2023-05-21T11:46:46.708Z,25.81
2023-05-21T11:47:46.678Z,25.54
2023-05-21T11:48:46.607Z,25.51
2023-05-21T11:49:46.632Z,25.53
2023-05-21T11:50:46.618Z,25.59
2023-05-21T11:51:46.593Z,25.72
2023-05-21T11:52:46.586Z,25.84
2023-05-21T11:53:46.572Z,26.10
2023-05-21T11:54:46.645Z,26.34
2023-05-21T11:55:46.545Z,26.56
2023-05-21T11:56:46.532Z,26.55
2023-05-21T11:57:46.535Z,26.44
2023-05-21T11:58:46.549Z,26.40
2023-05-21T11:59:46.535Z,26.48
2023-05-21T12:00:46.496Z,26.55
2023-05-21T12:01:46.483Z,26.68
2023-05-21T12:02:46.611Z,26.71
2023-05-21T12:03:46.582Z,26.99
2023-05-21T12:04:46.460Z,26.99
2023-05-21T12:05:46.538Z,27.08
2023-05-21T12:06:46.425Z,27.02
2023-05-21T12:07:46.428Z,27.00
2023-05-21T12:08:46.426Z,26.89
2023-05-21T12:09:46.405Z,27.02
2023-05-21T12:10:46.387Z,26.89
2023-05-21T12:11:46.386Z,27.00
2023-05-21T12:12:54.595Z,27.36
2023-05-21T12:13:46.394Z,27.74
2023-05-21T12:14:46.352Z,28.11
2023-05-21T12:15:46.348Z,28.22
2023-05-21T12:16:46.389Z,28.25
2023-05-21T12:17:46.367Z,28.41
2023-05-21T12:18:46.346Z,28.67
2023-05-21T12:19:46.296Z,28.82
2023-05-21T12:20:46.288Z,28.96
2023-05-21T12:21:46.276Z,29.34
2023-05-21T12:22:46.274Z,29.29
2023-05-21T12:23:46.259Z,29.05
2023-05-21T12:24:46.247Z,28.93
2023-05-21T12:25:46.229Z,29.13
2023-05-21T12:26:46.276Z,29.04
2023-05-21T12:27:46.239Z,29.23
2023-05-21T12:28:46.195Z,29.26
2023-05-21T12:29:46.211Z,29.24
2023-05-21T12:30:46.169Z,29.22
2023-05-21T12:31:46.254Z,28.97
2023-05-21T12:32:46.174Z,28.51
2023-05-21T12:33:46.155Z,28.47
2023-05-21T12:34:46.190Z,28.56
2023-05-21T12:35:46.182Z,28.75
2023-05-21T12:36:46.152Z,28.89
2023-05-21T12:37:46.109Z,29.31
2023-05-21T12:38:46.089Z,29.45
2023-05-21T12:39:46.104Z,29.36
2023-05-21T12:40:46.180Z,29.34
2023-05-21T12:41:46.092Z,29.50
2023-05-21T12:42:46.056Z,29.51
2023-05-21T12:43:46.056Z,29.66
2023-05-21T12:44:46.056Z,29.73
2023-05-21T12:45:46.062Z,29.23
2023-05-21T12:46:46.021Z,29.23
2023-05-21T12:47:46.028Z,29.08
2023-05-21T12:48:45.987Z,29.14
2023-05-21T12:49:45.987Z,28.85
2023-05-21T12:50:46.000Z,28.64
2023-05-21T12:51:45.970Z,28.56
2023-05-21T12:52:45.965Z,28.32